< < Back
Terminal Aerodrome Forecast


Current Version              Previous Versions:   1  2  3  4  5  6  7  8  9  

Terminal Aerodrome Forecast

888
FTUS42 KTAE 011700
TAFTLH
TAF
KTLH 011740Z 0118/0218 14004KT P6SM SCT050
     FM020300 00000KT P6SM FEW250
     FM021500 08004KT P6SM FEW040=

Latest METAR

240
SAUS80 KWBC 021500
MTRTLH
METAR KTLH 021453Z 34004KT 10SM FEW040 SCT250 31/22 A3012 RMK AO2 SLP198
CB DSNT S T03110222 51010


USA.gov is the U.S. government's official web portal to all federal, state and local government web resources and services.